createdAt,value
2018-12-31T00:02:09.964Z,-17.77
2018-12-31T00:04:43.005Z,-17.62
2018-12-31T00:07:15.774Z,-17.27
2018-12-31T00:09:48.869Z,-17.27
2018-12-31T00:12:22.999Z,-17.13
2018-12-31T00:14:56.077Z,-17.13
2018-12-31T00:17:29.256Z,-17.03
2018-12-31T00:20:02.444Z,-16.78
2018-12-31T00:22:35.420Z,-16.80
2018-12-31T00:25:08.439Z,-16.67
2018-12-31T00:27:41.449Z,-16.67
2018-12-31T00:30:14.535Z,-16.38
2018-12-31T00:32:48.540Z,-15.99
2018-12-31T00:35:21.527Z,-15.81
2018-12-31T00:37:54.813Z,-15.70
2018-12-31T00:40:28.181Z,-15.70
2018-12-31T00:43:01.324Z,-15.51
2018-12-31T00:45:34.463Z,-15.51
2018-12-31T00:48:07.721Z,-15.23
2018-12-31T00:50:40.936Z,-15.23
2018-12-31T00:53:13.882Z,-14.84
2018-12-31T00:55:46.876Z,-14.84
2018-12-31T00:58:19.881Z,-14.60
2018-12-31T01:00:52.911Z,-14.54
2018-12-31T01:03:26.170Z,-14.34
2018-12-31T01:05:59.811Z,-14.23
2018-12-31T01:08:32.814Z,-14.08
2018-12-31T01:11:05.972Z,-14.08
2018-12-31T01:13:39.244Z,-13.72
2018-12-31T01:16:12.444Z,-13.72
2018-12-31T01:18:45.428Z,-13.74
2018-12-31T01:21:18.460Z,-13.53
2018-12-31T01:23:51.466Z,-13.44
2018-12-31T01:26:24.501Z,-13.41
2018-12-31T01:28:57.925Z,-13.26
2018-12-31T01:31:30.998Z,-13.26
2018-12-31T01:34:04.067Z,-13.19
2018-12-31T01:36:37.024Z,-13.11
2018-12-31T01:39:10.194Z,-13.12
2018-12-31T01:41:43.197Z,-13.06
2018-12-31T01:44:16.205Z,-13.06
2018-12-31T01:46:49.177Z,-13.14
2018-12-31T01:49:22.103Z,-12.85
2018-12-31T01:51:55.324Z,-12.70
2018-12-31T01:54:28.449Z,-12.50
2018-12-31T01:57:01.483Z,-12.50
2018-12-31T01:59:34.878Z,-12.53
2018-12-31T02:02:08.012Z,-12.49
2018-12-31T02:04:41.108Z,-12.29
2018-12-31T02:07:14.109Z,-12.06
2018-12-31T02:09:47.119Z,-12.00
2018-12-31T02:12:21.036Z,-12.07
2018-12-31T02:14:54.555Z,-12.26
2018-12-31T02:17:27.374Z,-12.33
2018-12-31T02:20:00.623Z,-12.06
2018-12-31T02:22:33.475Z,-11.80
2018-12-31T02:25:06.550Z,-11.49
2018-12-31T02:27:39.463Z,-11.64
2018-12-31T02:30:12.626Z,-11.69
2018-12-31T02:32:46.236Z,-11.73
2018-12-31T02:35:19.648Z,-11.50
2018-12-31T02:37:52.935Z,-11.22
2018-12-31T02:40:26.203Z,-11.18
2018-12-31T02:43:00.474Z,-11.13
2018-12-31T02:45:33.491Z,-11.26
2018-12-31T02:48:07.245Z,-11.34
2018-12-31T02:50:40.217Z,-11.31
2018-12-31T02:53:13.186Z,-10.60
2018-12-31T02:55:46.686Z,-10.60
2018-12-31T02:58:20.495Z,-10.72
2018-12-31T03:00:56.935Z,-10.72
2018-12-31T03:03:29.790Z,-10.38
2018-12-31T03:06:02.768Z,-10.32
2018-12-31T03:08:35.853Z,-10.22
2018-12-31T03:11:09.337Z,-10.16
2018-12-31T03:13:42.431Z,-9.96
2018-12-31T03:16:15.444Z,-9.74
2018-12-31T03:18:49.039Z,-9.63
2018-12-31T03:21:23.375Z,-9.15
2018-12-31T03:23:56.090Z,-8.93
2018-12-31T03:26:29.551Z,-9.10
2018-12-31T03:29:03.499Z,-9.56
2018-12-31T03:31:36.934Z,-9.65
2018-12-31T03:34:10.307Z,-9.46
2018-12-31T03:36:43.372Z,-9.40
2018-12-31T03:39:16.863Z,-9.51
2018-12-31T03:41:49.935Z,-9.73
2018-12-31T03:44:22.822Z,-9.27
2018-12-31T03:46:56.346Z,-9.30
2018-12-31T03:49:29.590Z,-9.55
2018-12-31T03:52:02.949Z,-9.75
2018-12-31T03:54:36.155Z,-9.35
2018-12-31T03:57:09.654Z,-9.22
2018-12-31T03:59:42.878Z,-9.41
2018-12-31T04:02:16.289Z,-9.28
2018-12-31T04:04:49.485Z,-8.91
2018-12-31T04:07:23.393Z,-8.96
2018-12-31T04:09:56.929Z,-9.08
2018-12-31T04:12:30.243Z,-9.33
2018-12-31T04:15:03.396Z,-9.53
2018-12-31T04:17:36.440Z,-9.05
2018-12-31T04:20:10.433Z,-8.88
2018-12-31T04:22:44.140Z,-9.04
2018-12-31T04:25:17.200Z,-9.13
2018-12-31T04:27:50.461Z,-8.99
2018-12-31T04:30:23.700Z,-9.14
2018-12-31T04:32:57.298Z,-9.30
2018-12-31T04:35:30.378Z,-9.27
2018-12-31T04:38:04.010Z,-8.96
2018-12-31T04:40:37.721Z,-9.26
2018-12-31T04:43:11.346Z,-9.53
2018-12-31T04:45:45.030Z,-9.19
2018-12-31T04:48:18.430Z,-8.91
2018-12-31T04:50:52.404Z,-8.74
2018-12-31T04:53:25.611Z,-8.59
2018-12-31T04:55:59.330Z,-8.64
2018-12-31T04:58:33.663Z,-9.06
2018-12-31T05:01:06.909Z,-8.74
2018-12-31T05:03:40.117Z,-8.55
2018-12-31T05:06:13.152Z,-8.57
2018-12-31T05:08:46.619Z,-8.66
2018-12-31T05:11:19.790Z,-8.78
2018-12-31T05:13:52.777Z,-8.89
2018-12-31T05:16:25.947Z,-9.28
2018-12-31T05:19:01.542Z,-9.23
2018-12-31T05:21:34.862Z,-9.23
2018-12-31T05:24:08.624Z,-9.16
2018-12-31T05:26:42.141Z,-8.96
2018-12-31T05:29:15.365Z,-9.14
2018-12-31T05:31:48.545Z,-9.19
2018-12-31T05:34:22.134Z,-9.10
2018-12-31T05:36:55.733Z,-9.21
2018-12-31T05:39:28.872Z,-9.19
2018-12-31T05:42:02.155Z,-9.16
2018-12-31T05:44:35.508Z,-9.17
2018-12-31T05:47:23.264Z,-9.12
2018-12-31T05:50:01.301Z,-9.08
2018-12-31T05:52:34.977Z,-9.12
2018-12-31T05:55:08.650Z,-9.24
2018-12-31T05:57:42.328Z,-9.24
2018-12-31T06:00:16.362Z,-9.16
2018-12-31T06:02:50.493Z,-9.16
2018-12-31T06:05:24.279Z,-9.32
2018-12-31T06:07:57.426Z,-9.62
2018-12-31T06:10:30.454Z,-9.57
2018-12-31T06:13:04.425Z,-9.54
2018-12-31T06:15:37.501Z,-9.54
2018-12-31T06:18:10.455Z,-9.49
2018-12-31T06:20:43.654Z,-9.32
2018-12-31T06:23:16.774Z,-9.36
2018-12-31T06:25:50.207Z,-9.27
2018-12-31T06:28:23.725Z,-9.64
2018-12-31T06:30:56.639Z,-9.64
2018-12-31T06:33:29.560Z,-9.57
2018-12-31T06:36:02.563Z,-9.48
2018-12-31T06:38:37.102Z,-9.46
2018-12-31T06:41:11.204Z,-9.62
2018-12-31T06:43:45.530Z,-9.56
2018-12-31T06:46:22.876Z,-9.50
2018-12-31T06:48:56.326Z,-9.61
2018-12-31T06:51:29.677Z,-9.61
2018-12-31T06:54:05.242Z,-9.80
2018-12-31T06:56:38.371Z,-9.74
2018-12-31T06:59:13.177Z,-9.86
2018-12-31T07:01:46.586Z,-9.85
2018-12-31T07:04:19.691Z,-9.79
2018-12-31T07:06:52.495Z,-9.79
2018-12-31T07:09:26.800Z,-9.73
2018-12-31T07:12:00.493Z,-9.61
2018-12-31T07:14:33.951Z,-9.61
2018-12-31T07:17:06.930Z,-9.82
2018-12-31T07:19:40.693Z,-9.80
2018-12-31T07:22:14.086Z,-9.72
2018-12-31T07:24:47.236Z,-9.69
2018-12-31T07:27:20.649Z,-9.88
2018-12-31T07:29:53.668Z,-9.92
2018-12-31T07:32:26.906Z,-9.92
2018-12-31T07:35:01.549Z,-10.05
2018-12-31T07:37:34.334Z,-9.98
2018-12-31T07:40:07.587Z,-10.04
2018-12-31T07:42:40.691Z,-10.14
2018-12-31T07:45:13.698Z,-10.21
2018-12-31T07:47:46.627Z,-10.18
2018-12-31T07:50:20.319Z,-10.19
2018-12-31T07:52:54.535Z,-10.29
2018-12-31T07:55:28.743Z,-10.39
2018-12-31T07:58:06.087Z,-10.51
2018-12-31T08:00:39.521Z,-10.47
2018-12-31T08:03:13.103Z,-10.43
2018-12-31T08:05:46.213Z,-10.43
2018-12-31T08:08:19.424Z,-10.48
2018-12-31T08:10:52.429Z,-10.54
2018-12-31T08:13:25.379Z,-10.51
2018-12-31T08:15:58.706Z,-10.54
2018-12-31T08:18:32.103Z,-10.63
2018-12-31T08:21:05.413Z,-10.65
2018-12-31T08:23:39.541Z,-10.77
2018-12-31T08:26:14.134Z,-10.85
2018-12-31T08:28:48.302Z,-11.13
2018-12-31T08:31:22.078Z,-10.99
2018-12-31T08:33:55.526Z,-10.97
2018-12-31T08:36:29.087Z,-11.05
2018-12-31T08:39:04.601Z,-11.08
2018-12-31T08:41:38.462Z,-11.23
2018-12-31T08:44:11.895Z,-11.33
2018-12-31T08:46:45.136Z,-11.46
2018-12-31T08:49:19.555Z,-11.46
2018-12-31T08:51:53.688Z,-11.49
2018-12-31T08:54:26.995Z,-11.48
2018-12-31T08:57:01.056Z,-11.46
2018-12-31T08:59:34.369Z,-11.36
2018-12-31T09:02:07.277Z,-11.36
2018-12-31T09:04:40.828Z,-11.26
2018-12-31T09:07:13.913Z,-11.45
2018-12-31T09:09:46.915Z,-11.61
2018-12-31T09:12:19.917Z,-11.58
2018-12-31T09:14:52.888Z,-11.78
2018-12-31T09:17:25.963Z,-11.69
2018-12-31T09:19:58.978Z,-11.70
2018-12-31T09:22:32.055Z,-11.68
2018-12-31T09:25:05.161Z,-11.74
2018-12-31T09:27:38.113Z,-11.89
2018-12-31T09:30:11.834Z,-11.95
2018-12-31T09:32:44.906Z,-11.90
2018-12-31T09:35:18.535Z,-11.92
2018-12-31T09:37:52.852Z,-11.98
2018-12-31T09:40:25.887Z,-11.91
2018-12-31T09:42:59.574Z,-11.78
2018-12-31T09:45:32.626Z,-11.82
2018-12-31T09:48:06.456Z,-11.80
2018-12-31T09:50:39.938Z,-11.87
2018-12-31T09:53:13.191Z,-11.94
2018-12-31T09:55:46.415Z,-11.96
2018-12-31T09:58:28.293Z,-12.00
2018-12-31T10:01:01.417Z,-12.11
2018-12-31T10:03:34.430Z,-12.15
2018-12-31T10:06:07.405Z,-12.21
2018-12-31T10:08:40.383Z,-12.37
2018-12-31T10:11:14.539Z,-12.37
2018-12-31T10:13:47.608Z,-12.37
2018-12-31T10:16:20.965Z,-12.34
2018-12-31T10:18:54.109Z,-12.33
2018-12-31T10:21:26.838Z,-12.33
2018-12-31T10:23:59.839Z,-12.32
2018-12-31T10:26:52.490Z,-12.40
2018-12-31T10:29:25.582Z,-12.33
2018-12-31T10:31:58.574Z,-12.19
2018-12-31T10:34:31.839Z,-12.23
2018-12-31T10:37:08.009Z,-12.24
2018-12-31T10:39:41.325Z,-12.38
2018-12-31T10:42:14.795Z,-12.41
2018-12-31T10:44:47.712Z,-12.39
2018-12-31T10:47:40.199Z,-12.37
2018-12-31T10:50:13.362Z,-12.36
2018-12-31T10:52:46.402Z,-12.48
2018-12-31T10:55:19.436Z,-12.56
2018-12-31T10:57:52.561Z,-12.72
2018-12-31T11:00:28.266Z,-12.72
2018-12-31T11:03:01.230Z,-12.60
2018-12-31T11:05:34.131Z,-12.59
2018-12-31T11:08:07.200Z,-12.62
2018-12-31T11:10:40.192Z,-12.71
2018-12-31T11:13:12.997Z,-12.72
2018-12-31T11:15:45.680Z,-12.71
2018-12-31T11:18:18.477Z,-12.79
2018-12-31T11:20:51.591Z,-12.78
2018-12-31T11:23:24.816Z,-12.88
2018-12-31T11:25:58.102Z,-12.77
2018-12-31T11:28:30.838Z,-12.80
2018-12-31T11:31:03.793Z,-12.92
2018-12-31T11:33:36.451Z,-12.72
2018-12-31T11:36:09.555Z,-12.84
2018-12-31T11:38:42.479Z,-12.68
2018-12-31T11:41:15.599Z,-12.75
2018-12-31T11:43:48.631Z,-12.70
2018-12-31T11:46:22.073Z,-12.75
2018-12-31T11:48:55.220Z,-12.68
2018-12-31T11:51:28.288Z,-12.70
2018-12-31T11:54:01.180Z,-12.77
2018-12-31T11:56:34.329Z,-12.62
2018-12-31T11:59:07.316Z,-12.48
2018-12-31T12:01:40.258Z,-12.61
2018-12-31T12:04:13.420Z,-12.54
2018-12-31T12:06:46.531Z,-12.42
2018-12-31T12:09:19.600Z,-12.48
2018-12-31T12:11:52.775Z,-12.40
2018-12-31T12:14:25.997Z,-12.40
2018-12-31T12:16:59.018Z,-12.35
2018-12-31T12:19:32.008Z,-12.29
2018-12-31T12:22:07.463Z,-12.37
2018-12-31T12:24:40.198Z,-12.31
2018-12-31T12:27:15.905Z,-12.30
2018-12-31T12:29:55.998Z,-12.26
2018-12-31T12:32:29.043Z,-12.39
2018-12-31T12:35:02.341Z,-12.49
2018-12-31T12:37:36.078Z,-12.51
2018-12-31T12:40:12.804Z,-12.58
2018-12-31T12:42:45.959Z,-12.69
2018-12-31T12:45:19.896Z,-12.69
2018-12-31T12:47:53.120Z,-12.72
2018-12-31T12:50:26.754Z,-12.68
2018-12-31T12:53:00.571Z,-12.67
2018-12-31T12:55:35.819Z,-12.71
2018-12-31T12:58:08.245Z,-12.74
2018-12-31T13:00:41.313Z,-12.77
2018-12-31T13:03:14.583Z,-12.77
2018-12-31T13:05:48.167Z,-12.74
2018-12-31T13:08:21.260Z,-12.78
2018-12-31T13:10:54.724Z,-12.83
2018-12-31T13:13:28.163Z,-12.86
2018-12-31T13:16:01.082Z,-12.92
2018-12-31T13:18:34.316Z,-13.12
2018-12-31T13:21:07.699Z,-13.18
2018-12-31T13:23:40.750Z,-13.20
2018-12-31T13:26:14.121Z,-13.16
2018-12-31T13:28:47.070Z,-13.25
2018-12-31T13:31:20.233Z,-13.20
2018-12-31T13:33:53.696Z,-13.20
2018-12-31T13:36:26.826Z,-13.29
2018-12-31T13:38:59.825Z,-13.37
2018-12-31T13:41:33.133Z,-13.43
2018-12-31T13:44:06.284Z,-13.44
2018-12-31T13:46:39.421Z,-13.55
2018-12-31T13:49:12.634Z,-13.79
2018-12-31T13:51:45.829Z,-13.80
2018-12-31T13:54:18.583Z,-13.92
2018-12-31T13:56:52.155Z,-13.80
2018-12-31T13:59:25.478Z,-13.86
2018-12-31T14:01:58.589Z,-13.96
2018-12-31T14:04:31.417Z,-13.87
2018-12-31T14:07:04.580Z,-13.92
2018-12-31T14:09:37.912Z,-14.03
2018-12-31T14:12:10.982Z,-14.03
2018-12-31T14:14:44.057Z,-14.01
2018-12-31T14:17:17.144Z,-14.19
2018-12-31T14:19:50.397Z,-14.24
2018-12-31T14:22:23.295Z,-14.15
2018-12-31T14:24:56.457Z,-14.19
2018-12-31T14:27:29.342Z,-14.22
2018-12-31T14:30:02.772Z,-14.31
2018-12-31T14:32:36.108Z,-14.27
2018-12-31T14:35:09.155Z,-14.33
2018-12-31T14:37:48.832Z,-14.28
2018-12-31T14:40:24.666Z,-14.26
2018-12-31T14:42:57.869Z,-14.25
2018-12-31T14:45:31.984Z,-14.20
2018-12-31T14:48:05.339Z,-14.36
2018-12-31T14:50:38.397Z,-14.33
2018-12-31T14:53:11.444Z,-14.31
2018-12-31T14:55:44.633Z,-14.32
2018-12-31T14:58:20.617Z,-14.35
2018-12-31T15:00:54.103Z,-14.35
2018-12-31T15:03:27.861Z,-14.44
2018-12-31T15:06:01.139Z,-14.28
2018-12-31T15:08:34.640Z,-14.30
2018-12-31T15:11:07.780Z,-14.36
2018-12-31T15:13:40.743Z,-14.46
2018-12-31T15:16:13.842Z,-14.49
2018-12-31T15:18:46.874Z,-14.53
2018-12-31T15:21:19.923Z,-14.58
2018-12-31T15:23:53.120Z,-14.47
2018-12-31T15:26:26.183Z,-14.44
2018-12-31T15:28:59.804Z,-14.42
2018-12-31T15:31:33.145Z,-14.44
2018-12-31T15:34:06.183Z,-14.49
2018-12-31T15:36:40.417Z,-14.47
2018-12-31T15:39:13.497Z,-14.45
2018-12-31T15:41:49.009Z,-14.53
2018-12-31T15:44:22.127Z,-14.55
2018-12-31T15:46:55.176Z,-14.58
2018-12-31T15:49:28.118Z,-14.49
2018-12-31T15:52:01.300Z,-14.52
2018-12-31T15:54:34.146Z,-14.63
2018-12-31T15:57:07.231Z,-14.76
2018-12-31T15:59:40.279Z,-14.93
2018-12-31T16:02:13.326Z,-14.77
2018-12-31T16:04:46.298Z,-14.80
2018-12-31T16:07:19.481Z,-14.85
2018-12-31T16:09:52.337Z,-14.79
2018-12-31T16:12:25.971Z,-14.91
2018-12-31T16:15:02.109Z,-14.99
2018-12-31T16:17:35.265Z,-15.10
2018-12-31T16:20:08.797Z,-15.21
2018-12-31T16:22:41.997Z,-15.14
2018-12-31T16:25:15.186Z,-15.04
2018-12-31T16:27:48.156Z,-14.91
2018-12-31T16:30:21.108Z,-14.91
2018-12-31T16:32:54.204Z,-14.84
2018-12-31T16:35:27.165Z,-14.78
2018-12-31T16:38:00.150Z,-14.68
2018-12-31T16:40:32.997Z,-14.44
2018-12-31T16:43:06.179Z,-14.35
2018-12-31T16:45:39.329Z,-14.37
2018-12-31T16:48:12.423Z,-14.48
2018-12-31T16:50:45.555Z,-14.47
2018-12-31T16:53:18.709Z,-14.50
2018-12-31T16:55:52.084Z,-14.47
2018-12-31T16:58:25.088Z,-14.47
2018-12-31T17:00:58.002Z,-14.47
2018-12-31T17:03:31.146Z,-14.50
2018-12-31T17:06:04.162Z,-14.43
2018-12-31T17:08:37.239Z,-14.60
2018-12-31T17:11:10.456Z,-14.42
2018-12-31T17:13:43.544Z,-14.48
2018-12-31T17:16:16.472Z,-14.48
2018-12-31T17:18:49.646Z,-14.38
2018-12-31T17:21:22.992Z,-14.42
2018-12-31T17:23:56.083Z,-15.13
2018-12-31T17:26:29.000Z,-15.13
2018-12-31T17:29:01.917Z,-15.20
2018-12-31T17:31:35.053Z,-15.08
2018-12-31T17:34:07.929Z,-15.13
2018-12-31T17:36:40.925Z,-15.06
2018-12-31T17:39:13.983Z,-15.16
2018-12-31T17:41:47.024Z,-15.00
2018-12-31T17:44:20.167Z,-15.15
2018-12-31T17:46:53.433Z,-15.07
2018-12-31T17:49:26.577Z,-15.07
2018-12-31T17:51:59.559Z,-15.18
2018-12-31T17:54:33.051Z,-15.14
2018-12-31T17:57:06.283Z,-15.14
2018-12-31T17:59:39.278Z,-15.33
2018-12-31T18:02:12.282Z,-15.23
2018-12-31T18:04:45.648Z,-15.23
2018-12-31T18:07:19.236Z,-15.29
2018-12-31T18:09:52.794Z,-15.36
2018-12-31T18:12:25.872Z,-15.41
2018-12-31T18:14:59.255Z,-15.41
2018-12-31T18:17:32.329Z,-15.50
2018-12-31T18:20:05.915Z,-15.46
2018-12-31T18:22:39.053Z,-15.26
2018-12-31T18:25:12.380Z,-15.26
2018-12-31T18:27:45.403Z,-15.29
2018-12-31T18:30:18.434Z,-15.39
2018-12-31T18:32:51.612Z,-15.50
2018-12-31T18:35:24.727Z,-15.50
2018-12-31T18:37:57.881Z,-15.76
2018-12-31T18:40:30.802Z,-15.76
2018-12-31T18:43:03.966Z,-15.74
2018-12-31T18:45:36.871Z,-15.74
2018-12-31T18:48:10.031Z,-15.71
2018-12-31T18:50:43.120Z,-15.68
2018-12-31T18:53:16.210Z,-15.89
2018-12-31T18:55:49.208Z,-15.82
2018-12-31T18:58:22.131Z,-15.63
2018-12-31T19:00:55.080Z,-15.70
2018-12-31T19:03:29.927Z,-15.70
2018-12-31T19:06:02.971Z,-15.88
2018-12-31T19:08:35.975Z,-15.88
2018-12-31T19:11:09.140Z,-15.84
2018-12-31T19:13:43.079Z,-15.80
2018-12-31T19:16:16.089Z,-15.75
2018-12-31T19:18:49.225Z,-15.74
2018-12-31T19:21:22.237Z,-15.62
2018-12-31T19:23:55.679Z,-15.62
2018-12-31T19:26:29.022Z,-15.71
2018-12-31T19:29:02.080Z,-15.79
2018-12-31T19:31:35.154Z,-16.00
2018-12-31T19:34:09.010Z,-16.00
2018-12-31T19:36:42.043Z,-15.98
2018-12-31T19:39:15.168Z,-15.98
2018-12-31T19:41:48.183Z,-15.92
2018-12-31T19:44:21.105Z,-15.94
2018-12-31T19:46:53.974Z,-16.02
2018-12-31T19:49:27.007Z,-16.02
2018-12-31T19:52:00.061Z,-15.98
2018-12-31T19:54:33.159Z,-16.14
2018-12-31T19:57:06.122Z,-16.14
2018-12-31T19:59:39.178Z,-16.16
2018-12-31T20:02:12.106Z,-16.23
2018-12-31T20:04:45.219Z,-16.20
2018-12-31T20:07:18.138Z,-16.16
2018-12-31T20:09:51.352Z,-16.20
2018-12-31T20:12:24.527Z,-16.20
2018-12-31T20:14:57.772Z,-16.26
2018-12-31T20:17:31.649Z,-16.18
2018-12-31T20:20:06.774Z,-16.18
2018-12-31T20:22:39.383Z,-16.00
2018-12-31T20:25:12.544Z,-15.83
2018-12-31T20:27:46.072Z,-15.88
2018-12-31T20:30:19.333Z,-15.78
2018-12-31T20:32:52.582Z,-15.78
2018-12-31T20:35:25.794Z,-15.68
2018-12-31T20:37:58.779Z,-15.78
2018-12-31T20:40:32.055Z,-15.78
2018-12-31T20:43:06.113Z,-15.69
2018-12-31T20:45:39.136Z,-15.71
2018-12-31T20:48:12.204Z,-15.72
2018-12-31T20:50:44.861Z,-15.65
2018-12-31T20:53:17.501Z,-15.69
2018-12-31T20:55:50.580Z,-15.75
2018-12-31T20:58:23.806Z,-15.59
2018-12-31T21:00:59.556Z,-15.61
2018-12-31T21:03:32.595Z,-15.63
2018-12-31T21:06:05.724Z,-15.80
2018-12-31T21:08:38.545Z,-15.80
2018-12-31T21:11:11.433Z,-15.83
2018-12-31T21:13:44.515Z,-15.82
2018-12-31T21:16:17.710Z,-15.94
2018-12-31T21:18:50.688Z,-15.93
2018-12-31T21:21:23.887Z,-15.91
2018-12-31T21:23:57.165Z,-16.03
2018-12-31T21:26:32.174Z,-16.15
2018-12-31T21:29:04.938Z,-16.21
2018-12-31T21:31:37.972Z,-16.14
2018-12-31T21:34:11.016Z,-16.26
2018-12-31T21:36:43.812Z,-16.47
2018-12-31T21:39:16.709Z,-16.61
2018-12-31T21:41:49.663Z,-16.49
2018-12-31T21:44:22.752Z,-16.40
2018-12-31T21:46:56.627Z,-16.32
2018-12-31T21:49:29.653Z,-16.29
2018-12-31T21:52:02.828Z,-16.31
2018-12-31T21:54:35.946Z,-16.09
2018-12-31T21:57:08.894Z,-15.95
2018-12-31T21:59:41.925Z,-15.96
2018-12-31T22:02:14.870Z,-16.00
2018-12-31T22:04:47.955Z,-15.93
2018-12-31T22:07:20.999Z,-15.93
2018-12-31T22:09:54.393Z,-15.92
2018-12-31T22:12:27.292Z,-15.90
2018-12-31T22:15:00.197Z,-16.02
2018-12-31T22:17:33.363Z,-15.89
2018-12-31T22:20:08.568Z,-16.02
2018-12-31T22:22:41.479Z,-16.03
2018-12-31T22:25:14.466Z,-16.03
2018-12-31T22:27:47.581Z,-15.97
2018-12-31T22:30:22.121Z,-15.91
2018-12-31T22:32:55.267Z,-15.89
2018-12-31T22:35:29.427Z,-15.86
2018-12-31T22:38:02.494Z,-15.89
2018-12-31T22:40:35.397Z,-16.08
2018-12-31T22:43:09.446Z,-16.11
2018-12-31T22:45:42.693Z,-16.23
2018-12-31T22:48:15.607Z,-16.14
2018-12-31T22:50:48.782Z,-16.12
2018-12-31T22:53:22.069Z,-16.45
2018-12-31T22:55:55.430Z,-16.51
2018-12-31T22:58:29.265Z,-16.52
2018-12-31T23:01:02.374Z,-16.63
2018-12-31T23:03:35.384Z,-16.56
2018-12-31T23:06:08.525Z,-16.58
2018-12-31T23:08:41.582Z,-16.55
2018-12-31T23:11:14.705Z,-16.49
2018-12-31T23:13:47.633Z,-16.52
2018-12-31T23:16:20.728Z,-16.43
2018-12-31T23:18:53.837Z,-16.43
2018-12-31T23:21:26.875Z,-16.27
2018-12-31T23:24:00.045Z,-16.12
2018-12-31T23:26:33.069Z,-16.09
2018-12-31T23:29:06.157Z,-16.09
2018-12-31T23:31:39.218Z,-16.17
2018-12-31T23:34:12.593Z,-16.17
2018-12-31T23:36:45.788Z,-15.87
2018-12-31T23:39:18.988Z,-15.77
2018-12-31T23:41:51.948Z,-15.77
2018-12-31T23:44:25.131Z,-15.77
2018-12-31T23:46:58.289Z,-15.77
2018-12-31T23:49:31.413Z,-15.65
2018-12-31T23:52:04.607Z,-15.53
2018-12-31T23:54:37.907Z,-15.53
2018-12-31T23:57:11.094Z,-15.34
2018-12-31T23:59:44.300Z,-15.34
